Time;durP1;ratioP1;P1;durP2;ratioP2;P2;SDS_P1;SDS_P2;PMS_P1;PMS_P2;Temp;Humidity;BMP_temperature;BMP_pressure;BME280_temperature;BME280_humidity;BME280_pressure;Samples;Min_cycle;Max_cycle;Signal;HPM_P1;HPM_P2
2023/08/14 00:04:26;;;;;;;;;;;22.90;64.40;;;;;;10146839;28;97679;-49
2023/08/14 00:09:28;;;;;;;;;;;22.90;64.40;;;;;;10162468;28;95714;-44
2023/08/14 00:14:30;;;;;;;;;;;22.90;64.40;;;;;;10153436;28;94194;-44
2023/08/14 00:19:32;;;;;;;;;;;22.90;64.30;;;;;;10176547;28;93531;-44
2023/08/14 00:24:34;;;;;;;;;;;22.90;64.30;;;;;;10163202;28;93516;-48
2023/08/14 00:29:36;;;;;;;;;;;22.90;64.20;;;;;;10168452;28;93393;-47
2023/08/14 00:34:38;;;;;;;;;;;22.90;64.20;;;;;;10183053;28;93796;-44
2023/08/14 00:39:39;;;;;;;;;;;22.90;64.20;;;;;;10165291;28;93829;-45
2023/08/14 00:44:41;;;;;;;;;;;22.90;64.30;;;;;;10168016;28;94687;-49
2023/08/14 00:49:43;;;;;;;;;;;22.90;64.20;;;;;;10179216;28;94573;-44
2023/08/14 00:54:45;;;;;;;;;;;22.90;64.20;;;;;;10162937;28;96119;-46
2023/08/14 00:59:46;;;;;;;;;;;22.80;64.10;;;;;;10180458;28;94387;-70
2023/08/14 01:04:48;;;;;;;;;;;22.80;64.20;;;;;;10166557;28;94590;-49
2023/08/14 01:09:50;;;;;;;;;;;22.80;64.10;;;;;;10165419;28;94448;-49
2023/08/14 01:14:56;;;;;;;;;;;22.80;64.20;;;;;;10163846;28;93491;-48
2023/08/14 01:19:58;;;;;;;;;;;22.80;64.20;;;;;;10165008;28;93415;-46
2023/08/14 01:24:59;;;;;;;;;;;22.80;64.30;;;;;;10169691;28;93415;-44
2023/08/14 01:30:01;;;;;;;;;;;22.70;64.20;;;;;;10169664;28;93757;-44
2023/08/14 01:35:03;;;;;;;;;;;22.70;64.20;;;;;;10161304;28;94788;-46
2023/08/14 01:40:24;;;;;;;;;;;22.70;64.30;;;;;;10162539;28;93988;-45
2023/08/14 01:45:28;;;;;;;;;;;22.70;64.30;;;;;;10151034;28;96916;-44
2023/08/14 01:50:31;;;;;;;;;;;22.60;64.30;;;;;;10177130;28;93476;-55
2023/08/14 01:55:33;;;;;;;;;;;22.60;64.30;;;;;;10141993;28;94087;-49
2023/08/14 02:00:36;;;;;;;;;;;22.60;64.30;;;;;;10176328;28;94416;-45
2023/08/14 02:05:38;;;;;;;;;;;22.60;64.40;;;;;;10156785;28;94459;-46
2023/08/14 02:10:40;;;;;;;;;;;22.60;64.30;;;;;;10185687;28;94990;-47
2023/08/14 02:15:45;;;;;;;;;;;22.60;64.40;;;;;;10177566;28;93371;-45
2023/08/14 02:20:49;;;;;;;;;;;22.60;64.40;;;;;;10152526;28;94896;-47
2023/08/14 02:25:53;;;;;;;;;;;22.60;64.40;;;;;;10163794;28;94840;-50
2023/08/14 02:30:54;;;;;;;;;;;22.50;64.40;;;;;;10168247;28;93668;-48
2023/08/14 02:35:56;;;;;;;;;;;22.50;64.40;;;;;;10159000;28;96667;-44
2023/08/14 02:41:01;;;;;;;;;;;22.50;64.40;;;;;;10161838;28;94480;-45
2023/08/14 02:46:02;;;;;;;;;;;22.50;64.40;;;;;;10160202;28;94107;-45
2023/08/14 02:51:04;;;;;;;;;;;22.50;64.50;;;;;;10157963;28;93397;-49
2023/08/14 02:56:06;;;;;;;;;;;22.50;64.40;;;;;;10161641;28;93545;-44
2023/08/14 03:01:08;;;;;;;;;;;22.50;64.30;;;;;;10161861;28;94702;-44
2023/08/14 03:06:10;;;;;;;;;;;22.50;64.30;;;;;;10144516;28;94876;-50
2023/08/14 03:11:12;;;;;;;;;;;22.50;64.30;;;;;;10155335;28;94373;-47
2023/08/14 03:16:14;;;;;;;;;;;22.50;64.20;;;;;;10155717;28;94839;-44
2023/08/14 03:21:16;;;;;;;;;;;22.50;64.20;;;;;;10161334;28;93705;-45
2023/08/14 03:26:17;;;;;;;;;;;22.50;64.20;;;;;;10159192;28;96391;-46
2023/08/14 03:31:19;;;;;;;;;;;22.50;64.20;;;;;;10160799;28;94682;-44
2023/08/14 03:36:21;;;;;;;;;;;22.50;64.30;;;;;;10155568;28;93877;-47
2023/08/14 03:41:23;;;;;;;;;;;22.50;64.30;;;;;;10161213;28;92798;-47
2023/08/14 03:46:24;;;;;;;;;;;22.50;64.30;;;;;;10159687;28;93459;-46
2023/08/14 03:51:26;;;;;;;;;;;22.50;64.30;;;;;;10163284;28;95237;-47
2023/08/14 03:56:28;;;;;;;;;;;22.50;64.30;;;;;;10166286;28;94350;-47
2023/08/14 04:01:30;;;;;;;;;;;22.40;65.30;;;;;;10152467;28;94031;-47
2023/08/14 04:06:32;;;;;;;;;;;22.50;64.40;;;;;;10179547;28;93976;-47
2023/08/14 04:11:35;;;;;;;;;;;22.40;64.30;;;;;;10166346;28;94675;-47
2023/08/14 04:16:43;;;;;;;;;;;22.40;64.30;;;;;;10161639;28;96871;-45
2023/08/14 04:21:46;;;;;;;;;;;22.40;64.30;;;;;;10165117;28;92928;-44
2023/08/14 04:26:47;;;;;;;;;;;22.50;64.30;;;;;;10164472;28;94598;-45
2023/08/14 04:31:49;;;;;;;;;;;22.50;64.30;;;;;;10160460;28;93752;-46
2023/08/14 04:36:51;;;;;;;;;;;22.50;64.30;;;;;;10164137;28;94097;-45
2023/08/14 04:41:53;;;;;;;;;;;22.50;64.20;;;;;;10164700;28;94413;-44
2023/08/14 04:52:10;;;;;;;;;;;22.50;64.20;;;;;;10175694;28;93829;-62
2023/08/14 04:57:12;;;;;;;;;;;22.50;64.20;;;;;;10184512;28;94528;-62
2023/08/14 05:02:13;;;;;;;;;;;22.50;64.10;;;;;;10197118;28;92990;-62
2023/08/14 05:07:15;;;;;;;;;;;22.50;64.10;;;;;;10195556;28;96717;-62
2023/08/14 05:12:17;;;;;;;;;;;22.50;64.10;;;;;;10182239;28;93600;-62
2023/08/14 05:17:19;;;;;;;;;;;22.50;64.20;;;;;;10195857;28;94571;-62
2023/08/14 05:22:21;;;;;;;;;;;22.50;64.10;;;;;;10199513;28;94479;-62
2023/08/14 05:27:23;;;;;;;;;;;22.50;64.10;;;;;;10201844;28;93944;-62
2023/08/14 05:32:25;;;;;;;;;;;22.50;64.10;;;;;;10185441;28;94822;-62
2023/08/14 05:37:27;;;;;;;;;;;22.50;64.10;;;;;;10195617;28;93418;-62
2023/08/14 05:42:30;;;;;;;;;;;22.50;64.20;;;;;;10176875;28;93431;-62
2023/08/14 05:47:32;;;;;;;;;;;22.60;64.30;;;;;;10193968;28;93512;-62
2023/08/14 05:52:33;;;;;;;;;;;22.60;64.30;;;;;;10196741;28;94503;-63
2023/08/14 05:57:36;;;;;;;;;;;22.60;64.30;;;;;;10194581;28;95315;-64
2023/08/14 06:02:38;;;;;;;;;;;22.60;64.40;;;;;;10173183;28;93637;-62
2023/08/14 06:07:40;;;;;;;;;;;22.60;64.40;;;;;;10195766;28;93397;-67
2023/08/14 06:12:42;;;;;;;;;;;22.70;64.40;;;;;;10178723;28;94418;-63
2023/08/14 06:17:44;;;;;;;;;;;22.70;64.60;;;;;;10182237;28;94421;-62
2023/08/14 06:22:46;;;;;;;;;;;22.80;64.70;;;;;;10178106;28;93687;-62
2023/08/14 06:27:48;;;;;;;;;;;22.80;64.70;;;;;;10205097;28;94919;-63
2023/08/14 06:32:50;;;;;;;;;;;22.70;64.60;;;;;;10201100;28;93223;-62
2023/08/14 06:37:51;;;;;;;;;;;22.80;64.70;;;;;;10185062;28;94387;-63
2023/08/14 06:42:53;;;;;;;;;;;22.80;64.80;;;;;;10181916;28;93527;-62
2023/08/14 06:47:55;;;;;;;;;;;22.80;64.90;;;;;;10188061;28;96489;-62
2023/08/14 06:52:57;;;;;;;;;;;22.80;64.90;;;;;;10176352;28;94276;-62
2023/08/14 06:57:59;;;;;;;;;;;22.80;65.00;;;;;;10199379;28;94329;-63
2023/08/14 07:03:01;;;;;;;;;;;22.80;65.40;;;;;;10173034;28;94613;-63
2023/08/14 07:08:03;;;;;;;;;;;22.80;65.80;;;;;;10193344;28;94157;-63
2023/08/14 07:13:06;;;;;;;;;;;22.80;66.60;;;;;;10198064;28;93434;-63
2023/08/14 07:18:08;;;;;;;;;;;22.80;65.80;;;;;;10179957;28;96339;-63
2023/08/14 07:23:10;;;;;;;;;;;22.80;65.70;;;;;;10198867;28;93903;-62
2023/08/14 07:28:12;;;;;;;;;;;22.80;65.40;;;;;;10193959;28;94443;-63
2023/08/14 07:33:15;;;;;;;;;;;22.80;65.20;;;;;;10199151;28;94384;-63
2023/08/14 07:38:17;;;;;;;;;;;22.70;65.00;;;;;;10192939;28;96668;-63
2023/08/14 07:43:19;;;;;;;;;;;22.70;65.00;;;;;;10173256;28;94365;-62
2023/08/14 07:48:21;;;;;;;;;;;22.70;65.00;;;;;;10164674;28;93350;-62
2023/08/14 07:53:22;;;;;;;;;;;22.70;65.00;;;;;;10160808;28;94675;-62
2023/08/14 07:58:25;;;;;;;;;;;22.60;65.20;;;;;;10167648;28;95070;-61
2023/08/14 08:03:27;;;;;;;;;;;22.60;65.20;;;;;;10171500;28;93967;-62
2023/08/14 08:08:31;;;;;;;;;;;22.60;66.20;;;;;;10192531;28;93619;-62
2023/08/14 08:13:33;;;;;;;;;;;22.60;65.60;;;;;;10172879;28;95728;-62
2023/08/14 08:18:34;;;;;;;;;;;22.60;65.80;;;;;;10187611;28;94585;-62
2023/08/14 08:23:37;;;;;;;;;;;22.60;65.80;;;;;;10184969;28;94854;-62
2023/08/14 08:28:39;;;;;;;;;;;22.60;65.90;;;;;;10171040;28;98748;-60
2023/08/14 08:33:41;;;;;;;;;;;22.60;65.80;;;;;;10182760;28;93940;-62
2023/08/14 08:38:42;;;;;;;;;;;22.60;65.10;;;;;;10190473;28;93733;-68
2023/08/14 08:43:45;;;;;;;;;;;22.60;65.40;;;;;;10186353;28;93339;-63
2023/08/14 08:48:49;;;;;;;;;;;22.60;65.40;;;;;;10167232;28;93545;-63
2023/08/14 08:53:51;;;;;;;;;;;22.60;65.20;;;;;;10196982;28;93652;-63
2023/08/14 08:58:53;;;;;;;;;;;22.60;64.90;;;;;;10191168;28;93852;-63
2023/08/14 09:03:55;;;;;;;;;;;22.60;64.80;;;;;;10200481;28;93426;-63
2023/08/14 09:08:57;;;;;;;;;;;22.60;64.50;;;;;;10186006;28;93622;-62
2023/08/14 09:14:00;;;;;;;;;;;22.60;64.50;;;;;;10200517;28;93358;-63
2023/08/14 09:19:02;;;;;;;;;;;22.60;64.40;;;;;;10176328;28;96014;-63
2023/08/14 09:24:04;;;;;;;;;;;22.60;64.40;;;;;;10199656;28;93364;-62
2023/08/14 09:29:07;;;;;;;;;;;22.60;64.40;;;;;;10185895;28;93463;-62
2023/08/14 09:34:17;;;;;;;;;;;22.60;64.70;;;;;;10165531;28;94315;-63
2023/08/14 09:39:19;;;;;;;;;;;22.70;64.70;;;;;;10181183;28;93432;-62
2023/08/14 09:44:22;;;;;;;;;;;22.70;64.80;;;;;;10198729;28;94676;-63
2023/08/14 09:49:26;;;;;;;;;;;22.80;65.20;;;;;;10163778;28;93372;-63
2023/08/14 09:54:32;;;;;;;;;;;22.80;64.90;;;;;;10164839;28;92758;-64
2023/08/14 09:59:36;;;;;;;;;;;22.90;65.50;;;;;;10198042;28;93992;-62
2023/08/14 10:04:40;;;;;;;;;;;23.00;65.40;;;;;;10174553;28;93589;-61
2023/08/14 10:09:44;;;;;;;;;;;23.10;65.20;;;;;;10192257;28;97155;-62
2023/08/14 10:14:47;;;;;;;;;;;23.20;64.90;;;;;;10185728;28;93466;-65
2023/08/14 10:19:51;;;;;;;;;;;23.20;64.80;;;;;;10192192;28;94391;-66
2023/08/14 10:24:54;;;;;;;;;;;23.30;64.80;;;;;;10177065;28;94463;-66
2023/08/14 10:29:57;;;;;;;;;;;23.30;64.60;;;;;;10191335;28;93037;-66
2023/08/14 10:34:59;;;;;;;;;;;23.30;64.60;;;;;;10199994;28;94020;-72
2023/08/14 10:40:16;;;;;;;;;;;23.30;64.50;;;;;;10174428;28;93944;-65
2023/08/14 10:45:20;;;;;;;;;;;23.40;64.20;;;;;;10183304;28;93659;-65
2023/08/14 10:50:26;;;;;;;;;;;23.50;64.20;;;;;;10193101;28;93465;-65
2023/08/14 10:55:40;;;;;;;;;;;23.50;64.20;;;;;;10173609;28;114059;-65
2023/08/14 11:00:44;;;;;;;;;;;23.60;64.30;;;;;;10189208;28;95433;-65
2023/08/14 11:05:46;;;;;;;;;;;23.60;64.30;;;;;;10187959;28;94845;-65
2023/08/14 11:10:49;;;;;;;;;;;23.60;64.40;;;;;;10194740;28;93832;-65
2023/08/14 11:15:51;;;;;;;;;;;23.60;64.40;;;;;;10180474;28;93286;-65
2023/08/14 11:20:53;;;;;;;;;;;23.60;64.50;;;;;;10181847;28;93455;-65
2023/08/14 11:25:55;;;;;;;;;;;23.60;64.70;;;;;;10188751;28;93976;-65
2023/08/14 11:30:57;;;;;;;;;;;23.60;64.80;;;;;;10165333;28;94329;-65
2023/08/14 11:35:59;;;;;;;;;;;23.60;64.90;;;;;;10185304;28;92676;-64
2023/08/14 11:41:04;;;;;;;;;;;23.60;65.50;;;;;;10172818;28;93327;-63
2023/08/14 11:46:07;;;;;;;;;;;23.60;66.40;;;;;;10191477;28;94162;-65
2023/08/14 11:51:09;;;;;;;;;;;23.60;65.40;;;;;;10164394;28;97023;-64
2023/08/14 11:56:11;;;;;;;;;;;23.60;65.40;;;;;;10193377;28;93719;-64
2023/08/14 12:01:14;;;;;;;;;;;23.60;65.30;;;;;;10183110;28;94431;-65
2023/08/14 12:06:17;;;;;;;;;;;23.60;65.20;;;;;;10179814;28;93892;-64
2023/08/14 12:11:18;;;;;;;;;;;23.60;65.20;;;;;;10198903;28;93498;-64
2023/08/14 12:16:21;;;;;;;;;;;23.60;65.20;;;;;;10206561;28;94655;-65
2023/08/14 12:21:27;;;;;;;;;;;23.60;65.10;;;;;;10189316;28;93864;-63
2023/08/14 12:26:35;;;;;;;;;;;23.60;65.10;;;;;;10183296;28;94191;-64
2023/08/14 12:31:38;;;;;;;;;;;23.60;65.00;;;;;;10171796;28;94361;-64
2023/08/14 12:36:39;;;;;;;;;;;23.60;65.00;;;;;;10187933;28;93605;-65
2023/08/14 12:41:41;;;;;;;;;;;23.60;64.90;;;;;;10197454;28;96847;-65
2023/08/14 12:46:43;;;;;;;;;;;23.60;64.80;;;;;;10180145;28;93912;-65
2023/08/14 12:51:45;;;;;;;;;;;23.60;64.80;;;;;;10186538;28;93470;-65
2023/08/14 12:56:47;;;;;;;;;;;23.60;64.70;;;;;;10196573;28;94362;-64
2023/08/14 13:01:49;;;;;;;;;;;23.60;64.70;;;;;;10190371;28;94578;-66
2023/08/14 13:06:51;;;;;;;;;;;23.60;64.70;;;;;;10186327;28;93630;-65
2023/08/14 13:11:53;;;;;;;;;;;23.70;65.50;;;;;;10181132;28;93947;-65
2023/08/14 13:16:55;;;;;;;;;;;23.70;65.80;;;;;;10187352;28;93024;-65
2023/08/14 13:21:57;;;;;;;;;;;23.70;65.90;;;;;;10181065;28;94823;-65
2023/08/14 13:26:58;;;;;;;;;;;23.80;65.70;;;;;;10183358;28;94108;-66
2023/08/14 13:32:09;;;;;;;;;;;23.90;65.50;;;;;;10192185;28;96983;-65
2023/08/14 13:37:11;;;;;;;;;;;23.90;65.40;;;;;;10174068;28;93571;-65
2023/08/14 13:42:13;;;;;;;;;;;24.00;65.40;;;;;;10203869;28;94533;-66
2023/08/14 13:47:15;;;;;;;;;;;24.00;65.40;;;;;;10168271;28;95226;-67
2023/08/14 13:52:19;;;;;;;;;;;24.00;65.40;;;;;;10202732;28;93398;-66
2023/08/14 13:57:21;;;;;;;;;;;24.00;65.30;;;;;;10187321;28;93221;-65
2023/08/14 14:02:23;;;;;;;;;;;24.00;65.10;;;;;;10177234;28;94766;-66
2023/08/14 14:07:25;;;;;;;;;;;24.00;65.10;;;;;;10195521;28;93835;-66
2023/08/14 14:12:32;;;;;;;;;;;23.90;65.00;;;;;;10195637;28;93723;-66
2023/08/14 14:17:37;;;;;;;;;;;23.90;65.00;;;;;;10200242;28;95041;-66
2023/08/14 14:22:39;;;;;;;;;;;23.90;64.90;;;;;;10187953;28;95907;-65
2023/08/14 14:27:41;;;;;;;;;;;23.90;64.80;;;;;;10193517;28;94301;-64
2023/08/14 14:32:42;;;;;;;;;;;23.80;64.50;;;;;;10185615;28;94427;-66
2023/08/14 14:37:44;;;;;;;;;;;23.80;64.40;;;;;;10178951;28;94739;-64
2023/08/14 14:42:46;;;;;;;;;;;23.80;64.40;;;;;;10198635;28;94428;-66
2023/08/14 14:47:48;;;;;;;;;;;23.80;64.70;;;;;;10195043;28;94390;-66
2023/08/14 14:52:49;;;;;;;;;;;23.80;64.20;;;;;;10211823;28;93785;-66
2023/08/14 14:57:51;;;;;;;;;;;23.80;64.10;;;;;;10195161;28;92721;-65
2023/08/14 15:02:53;;;;;;;;;;;23.80;64.00;;;;;;10198936;28;94138;-65
2023/08/14 15:07:56;;;;;;;;;;;23.80;63.80;;;;;;10168994;28;94520;-63
2023/08/14 15:12:58;;;;;;;;;;;23.80;63.70;;;;;;10182714;28;96486;-63
2023/08/14 15:17:59;;;;;;;;;;;23.80;63.60;;;;;;10172701;28;93981;-64
2023/08/14 15:23:02;;;;;;;;;;;23.80;63.50;;;;;;10184938;28;93528;-63
2023/08/14 15:28:04;;;;;;;;;;;23.70;63.40;;;;;;10169261;28;95171;-63
2023/08/14 15:33:08;;;;;;;;;;;23.70;63.50;;;;;;10185309;28;93812;-64
2023/08/14 15:38:10;;;;;;;;;;;23.70;63.50;;;;;;10191655;28;94007;-64
2023/08/14 15:43:11;;;;;;;;;;;23.70;63.70;;;;;;10180038;28;94437;-63
2023/08/14 15:48:13;;;;;;;;;;;23.70;63.80;;;;;;10181667;28;92935;-65
2023/08/14 15:53:15;;;;;;;;;;;23.80;64.60;;;;;;10200069;28;93829;-65
2023/08/14 15:58:17;;;;;;;;;;;23.80;65.60;;;;;;10214913;28;93500;-64
2023/08/14 16:03:18;;;;;;;;;;;23.80;66.30;;;;;;10194570;28;95818;-64
2023/08/14 16:08:20;;;;;;;;;;;23.90;69.30;;;;;;10178822;28;94972;-60
2023/08/14 16:13:22;;;;;;;;;;;24.20;69.20;;;;;;10195609;28;93522;-63
2023/08/14 16:18:24;;;;;;;;;;;24.30;70.20;;;;;;10195228;28;94433;-62
2023/08/14 16:23:26;;;;;;;;;;;24.40;71.90;;;;;;10178409;28;93505;-63
2023/08/14 16:28:28;;;;;;;;;;;24.50;70.20;;;;;;10207352;28;93937;-61
2023/08/14 16:33:30;;;;;;;;;;;24.60;69.10;;;;;;10210882;28;95597;-63
2023/08/14 16:38:32;;;;;;;;;;;24.70;68.30;;;;;;10201505;28;92654;-66
2023/08/14 16:43:34;;;;;;;;;;;24.70;67.80;;;;;;10170184;28;94457;-67
2023/08/14 16:48:37;;;;;;;;;;;24.70;67.70;;;;;;10199425;28;94295;-66
2023/08/14 16:53:39;;;;;;;;;;;24.60;67.60;;;;;;10173136;28;96798;-66
2023/08/14 16:58:40;;;;;;;;;;;24.60;67.50;;;;;;10206367;28;94526;-66
2023/08/14 17:03:42;;;;;;;;;;;24.60;67.50;;;;;;10199443;28;93494;-67
2023/08/14 17:08:44;;;;;;;;;;;24.60;67.50;;;;;;10202296;28;94462;-69
2023/08/14 17:13:47;;;;;;;;;;;24.50;67.60;;;;;;10182539;28;94216;-69
2023/08/14 17:18:49;;;;;;;;;;;24.50;68.10;;;;;;10171938;28;93508;-69
2023/08/14 17:23:50;;;;;;;;;;;24.40;66.80;;;;;;10201413;28;95166;-69
2023/08/14 17:28:52;;;;;;;;;;;24.40;66.70;;;;;;10196489;28;93630;-69
2023/08/14 17:33:54;;;;;;;;;;;24.50;66.60;;;;;;10184874;28;93749;-65
2023/08/14 17:38:57;;;;;;;;;;;24.50;66.50;;;;;;10173944;28;94541;-69
2023/08/14 17:43:59;;;;;;;;;;;24.40;66.60;;;;;;10188135;28;95732;-69
2023/08/14 17:49:01;;;;;;;;;;;24.40;66.60;;;;;;10177196;28;94208;-69
2023/08/14 17:54:03;;;;;;;;;;;24.40;66.60;;;;;;10198494;28;93561;-70
2023/08/14 17:59:05;;;;;;;;;;;24.50;66.50;;;;;;10179162;28;93816;-69
2023/08/14 18:04:08;;;;;;;;;;;24.40;66.50;;;;;;10180333;28;93787;-69
2023/08/14 18:09:10;;;;;;;;;;;24.40;66.50;;;;;;10197294;28;95737;-70
2023/08/14 18:14:12;;;;;;;;;;;24.40;66.60;;;;;;10178621;28;94539;-70
2023/08/14 18:19:14;;;;;;;;;;;24.40;66.70;;;;;;10196986;28;93017;-71
2023/08/14 18:24:30;;;;;;;;;;;24.30;66.70;;;;;;10185193;28;93334;-70
2023/08/14 18:29:33;;;;;;;;;;;24.30;66.60;;;;;;10170313;28;94668;-69
2023/08/14 18:34:39;;;;;;;;;;;24.30;66.60;;;;;;10178906;28;95699;-70
2023/08/14 18:39:41;;;;;;;;;;;24.30;66.70;;;;;;10181766;28;93037;-70
2023/08/14 18:44:43;;;;;;;;;;;24.20;66.70;;;;;;10183196;28;93443;-70
2023/08/14 18:49:45;;;;;;;;;;;24.20;67.70;;;;;;10185089;28;93764;-70
2023/08/14 18:54:47;;;;;;;;;;;24.20;66.80;;;;;;10187434;28;93868;-65
2023/08/14 18:59:49;;;;;;;;;;;24.20;66.70;;;;;;10194761;28;93439;-65
2023/08/14 19:04:51;;;;;;;;;;;24.20;66.70;;;;;;10191286;28;93374;-66
2023/08/14 19:09:53;;;;;;;;;;;24.20;66.80;;;;;;10192899;28;92876;-66
2023/08/14 19:14:55;;;;;;;;;;;24.20;67.80;;;;;;10199510;28;94890;-65
2023/08/14 19:19:57;;;;;;;;;;;24.20;66.70;;;;;;10174269;28;94793;-69
2023/08/14 19:24:59;;;;;;;;;;;24.20;66.60;;;;;;10174259;28;97214;-69
2023/08/14 19:30:01;;;;;;;;;;;24.20;66.70;;;;;;10177907;28;93722;-69
2023/08/14 19:35:04;;;;;;;;;;;24.10;66.70;;;;;;10195168;28;94665;-69
2023/08/14 19:40:10;;;;;;;;;;;24.10;66.90;;;;;;10200212;28;93878;-69
2023/08/14 19:45:12;;;;;;;;;;;24.10;67.00;;;;;;10179144;28;94771;-68
2023/08/14 19:50:14;;;;;;;;;;;24.10;67.10;;;;;;10182418;28;93437;-69
2023/08/14 19:55:15;;;;;;;;;;;24.10;67.10;;;;;;10187042;28;94321;-69
2023/08/14 20:00:17;;;;;;;;;;;24.10;67.00;;;;;;10182784;28;92789;-69
2023/08/14 20:05:19;;;;;;;;;;;24.10;67.00;;;;;;10186913;28;94053;-69
2023/08/14 20:10:21;;;;;;;;;;;24.20;67.10;;;;;;10187456;28;94401;-69
2023/08/14 20:15:23;;;;;;;;;;;24.20;67.10;;;;;;10178262;28;96140;-68
2023/08/14 20:20:25;;;;;;;;;;;24.10;67.10;;;;;;10182330;28;93988;-69
2023/08/14 20:25:27;;;;;;;;;;;24.10;67.10;;;;;;10211303;28;93397;-69
2023/08/14 20:30:29;;;;;;;;;;;24.10;67.10;;;;;;10195478;28;93658;-70
2023/08/14 20:35:31;;;;;;;;;;;24.10;67.10;;;;;;10184738;28;95940;-69
2023/08/14 20:40:33;;;;;;;;;;;24.10;67.20;;;;;;10204180;28;94420;-69
2023/08/14 20:45:36;;;;;;;;;;;24.10;67.10;;;;;;10170912;28;93605;-69
2023/08/14 20:50:43;;;;;;;;;;;24.10;67.10;;;;;;10175914;28;93398;-69
2023/08/14 20:55:45;;;;;;;;;;;24.10;67.10;;;;;;10178666;28;93815;-69
2023/08/14 21:00:48;;;;;;;;;;;24.10;67.10;;;;;;10195829;28;94819;-68
2023/08/14 21:05:50;;;;;;;;;;;24.10;67.20;;;;;;10178174;28;95852;-69
2023/08/14 21:10:52;;;;;;;;;;;24.10;67.10;;;;;;10203126;28;93883;-69
2023/08/14 21:15:55;;;;;;;;;;;24.10;67.10;;;;;;10201683;28;94480;-69
2023/08/14 21:20:57;;;;;;;;;;;24.10;67.10;;;;;;10196955;28;94608;-70
2023/08/14 21:25:59;;;;;;;;;;;24.10;67.10;;;;;;10203003;28;94729;-69
2023/08/14 21:31:01;;;;;;;;;;;24.00;67.10;;;;;;10173319;28;93609;-70
2023/08/14 21:36:02;;;;;;;;;;;24.00;67.10;;;;;;10200580;28;95611;-69
2023/08/14 21:41:08;;;;;;;;;;;24.00;67.10;;;;;;10201156;28;94267;-69
2023/08/14 21:46:10;;;;;;;;;;;24.00;67.10;;;;;;10184396;28;93208;-69
2023/08/14 21:51:12;;;;;;;;;;;24.00;67.10;;;;;;10197579;28;95006;-70
2023/08/14 21:56:14;;;;;;;;;;;24.00;67.10;;;;;;10195181;28;96395;-70
2023/08/14 22:01:15;;;;;;;;;;;24.00;67.10;;;;;;10196662;28;94214;-69
2023/08/14 22:06:17;;;;;;;;;;;24.00;67.10;;;;;;10199195;28;93937;-69
2023/08/14 22:11:19;;;;;;;;;;;24.00;67.10;;;;;;10203237;28;94491;-70
2023/08/14 22:16:21;;;;;;;;;;;23.90;67.10;;;;;;10200911;28;94698;-69
2023/08/14 22:21:23;;;;;;;;;;;23.90;67.00;;;;;;10184357;28;94597;-69
2023/08/14 22:26:25;;;;;;;;;;;23.90;67.00;;;;;;10194478;28;93862;-69
2023/08/14 22:31:27;;;;;;;;;;;23.90;67.00;;;;;;10188350;28;94200;-69
2023/08/14 22:36:29;;;;;;;;;;;23.90;67.00;;;;;;10187647;28;93702;-69
2023/08/14 22:41:30;;;;;;;;;;;23.90;66.90;;;;;;10184747;28;93196;-69
2023/08/14 22:46:32;;;;;;;;;;;23.90;66.80;;;;;;10201812;28;96837;-69
2023/08/14 22:51:34;;;;;;;;;;;23.90;66.90;;;;;;10199658;28;94563;-69
2023/08/14 22:56:37;;;;;;;;;;;23.90;66.90;;;;;;10176169;28;93671;-69
2023/08/14 23:01:39;;;;;;;;;;;23.90;66.80;;;;;;10175925;28;93815;-70
2023/08/14 23:06:41;;;;;;;;;;;23.90;66.80;;;;;;10179744;28;94958;-69
2023/08/14 23:11:42;;;;;;;;;;;23.90;66.80;;;;;;10181919;28;93388;-68
2023/08/14 23:16:44;;;;;;;;;;;23.80;66.70;;;;;;10194742;28;93662;-69
2023/08/14 23:21:46;;;;;;;;;;;23.90;66.70;;;;;;10196180;28;92366;-69
2023/08/14 23:26:47;;;;;;;;;;;23.80;66.60;;;;;;10178696;28;93793;-70
2023/08/14 23:31:49;;;;;;;;;;;23.90;66.70;;;;;;10190952;28;94402;-69
2023/08/14 23:36:51;;;;;;;;;;;23.90;66.60;;;;;;10179633;28;96962;-69
2023/08/14 23:41:52;;;;;;;;;;;23.80;66.50;;;;;;10201509;28;92718;-68
2023/08/14 23:46:55;;;;;;;;;;;23.80;66.50;;;;;;10194732;28;93873;-69
2023/08/14 23:51:57;;;;;;;;;;;23.80;66.60;;;;;;10177774;28;93926;-69
2023/08/14 23:56:58;;;;;;;;;;;23.80;66.50;;;;;;10186243;28;93707;-69
